createdAt,value
2023-02-19T00:02:51.883Z,11.73
2023-02-19T00:05:57.729Z,11.20
2023-02-19T00:09:04.541Z,12.68
2023-02-19T00:12:08.650Z,12.98
2023-02-19T00:15:14.520Z,13.63
2023-02-19T00:21:29.368Z,12.77
2023-02-19T00:24:33.242Z,13.75
2023-02-19T00:27:39.136Z,14.73
2023-02-19T00:33:49.608Z,12.45
2023-02-19T00:36:55.990Z,13.55
2023-02-19T00:40:01.858Z,12.35
2023-02-19T00:46:11.295Z,13.77
2023-02-19T00:49:18.992Z,14.07
2023-02-19T00:52:26.890Z,12.88
2023-02-19T00:55:30.791Z,12.98
2023-02-19T00:58:37.008Z,14.32
2023-02-19T01:01:41.415Z,14.10
2023-02-19T01:04:47.452Z,15.60
2023-02-19T01:10:59.390Z,14.57
2023-02-19T01:14:04.295Z,15.85
2023-02-19T01:17:10.238Z,14.18
2023-02-19T01:23:21.659Z,14.30
2023-02-19T01:26:28.005Z,16.85
2023-02-19T01:29:34.039Z,14.43
2023-02-19T01:32:37.877Z,13.63
2023-02-19T01:35:43.685Z,15.15
2023-02-19T01:38:49.620Z,15.38
2023-02-19T01:41:55.451Z,13.90
2023-02-19T01:45:22.551Z,14.88
2023-02-19T01:48:32.001Z,14.50
2023-02-19T01:51:39.529Z,13.50
2023-02-19T01:54:49.064Z,11.70
2023-02-19T01:57:56.803Z,13.13
2023-02-19T02:01:04.474Z,12.52
2023-02-19T02:04:11.204Z,12.82
2023-02-19T02:07:30.559Z,11.98
2023-02-19T02:10:36.378Z,11.63
2023-02-19T02:13:42.456Z,12.30
2023-02-19T02:16:53.969Z,10.77
2023-02-19T02:20:25.693Z,10.93
2023-02-19T02:23:42.045Z,10.63
2023-02-19T02:27:06.273Z,9.27
2023-02-19T02:30:37.394Z,10.57
2023-02-19T02:33:48.676Z,9.60
2023-02-19T02:36:56.573Z,9.50
2023-02-19T02:40:03.180Z,8.95
2023-02-19T02:43:08.629Z,8.80
2023-02-19T02:46:20.619Z,8.50
2023-02-19T02:49:27.758Z,8.35
2023-02-19T02:52:48.097Z,8.85
2023-02-19T02:55:55.103Z,9.55
2023-02-19T02:59:05.350Z,8.43
2023-02-19T03:02:14.604Z,8.07
2023-02-19T03:05:36.766Z,7.70
2023-02-19T03:08:46.143Z,8.02
2023-02-19T03:12:06.886Z,8.38
2023-02-19T03:15:27.403Z,9.07
2023-02-19T03:18:56.682Z,9.35
2023-02-19T03:22:09.268Z,7.95
2023-02-19T03:25:32.940Z,7.95
2023-02-19T03:29:03.439Z,7.75
2023-02-19T03:32:14.134Z,7.55
2023-02-19T03:35:24.374Z,6.68
2023-02-19T03:38:38.438Z,7.00
2023-02-19T03:41:48.188Z,7.50
2023-02-19T03:45:12.316Z,6.75
2023-02-19T03:48:26.120Z,6.57
2023-02-19T03:51:42.709Z,6.57
2023-02-19T03:54:54.121Z,5.72
2023-02-19T03:58:07.365Z,6.22
2023-02-19T04:01:16.120Z,6.20
2023-02-19T04:04:30.771Z,6.60
2023-02-19T04:07:40.442Z,6.28
2023-02-19T04:10:49.594Z,5.75
2023-02-19T04:14:04.853Z,5.40
2023-02-19T04:17:18.968Z,6.05
2023-02-19T04:20:25.554Z,6.53
2023-02-19T04:23:37.943Z,6.25
2023-02-19T04:26:42.726Z,6.10
2023-02-19T04:29:48.940Z,6.30
2023-02-19T04:32:52.910Z,5.30
2023-02-19T04:36:11.356Z,6.38
2023-02-19T04:39:17.186Z,6.90
2023-02-19T04:42:22.976Z,6.25
2023-02-19T04:45:26.865Z,6.43
2023-02-19T04:48:33.062Z,6.32
2023-02-19T04:51:37.035Z,7.65
2023-02-19T04:54:44.791Z,7.03
2023-02-19T04:57:48.681Z,6.72
2023-02-19T05:00:54.578Z,6.65
2023-02-19T05:07:04.117Z,6.07
2023-02-19T05:13:15.772Z,6.13
2023-02-19T05:19:25.237Z,6.47
2023-02-19T05:22:30.438Z,7.05
2023-02-19T05:25:38.271Z,6.13
2023-02-19T05:28:42.136Z,6.72
2023-02-19T05:31:48.470Z,7.05
2023-02-19T05:34:52.946Z,6.50
2023-02-19T05:37:58.843Z,6.38
2023-02-19T05:47:21.188Z,6.88
2023-02-19T05:50:27.158Z,7.03
2023-02-19T05:53:31.372Z,7.40
2023-02-19T05:56:41.068Z,6.53
2023-02-19T05:59:44.908Z,5.70
2023-02-19T06:02:50.828Z,6.32
2023-02-19T06:09:00.449Z,6.70
2023-02-19T06:15:13.324Z,6.47
2023-02-19T06:21:22.948Z,6.25
2023-02-19T06:24:26.775Z,6.70
2023-02-19T06:27:34.558Z,6.55
2023-02-19T06:30:38.566Z,7.63
2023-02-19T06:33:44.701Z,6.35
2023-02-19T06:36:50.717Z,5.72
2023-02-19T06:39:56.561Z,5.55
2023-02-19T06:43:02.349Z,4.85
2023-02-19T06:46:09.224Z,4.82
2023-02-19T06:49:13.105Z,5.60
2023-02-19T06:52:18.940Z,5.30
2023-02-19T06:55:22.761Z,5.70
2023-02-19T06:58:30.805Z,5.68
2023-02-19T07:01:36.374Z,6.32
2023-02-19T07:04:42.269Z,7.50
2023-02-19T07:10:59.945Z,6.03
2023-02-19T07:14:07.826Z,4.07
2023-02-19T07:17:13.638Z,3.17
2023-02-19T07:20:17.522Z,3.35
2023-02-19T07:23:23.385Z,3.80
2023-02-19T07:26:27.448Z,2.67
2023-02-19T07:29:35.294Z,3.78
2023-02-19T07:32:44.756Z,2.42
2023-02-19T07:35:51.875Z,2.40
2023-02-19T07:38:56.800Z,2.10
2023-02-19T07:42:02.696Z,2.40
2023-02-19T07:45:11.585Z,2.30
2023-02-19T07:48:17.693Z,2.05
2023-02-19T07:51:22.202Z,1.92
2023-02-19T07:54:28.145Z,2.25
2023-02-19T08:00:40.330Z,2.03
2023-02-19T08:03:45.244Z,2.63
2023-02-19T08:06:51.367Z,2.35
2023-02-19T08:10:15.407Z,2.42
2023-02-19T08:13:21.928Z,2.30
2023-02-19T08:16:41.949Z,2.50
2023-02-19T08:19:48.980Z,2.60
2023-02-19T08:26:02.158Z,2.72
2023-02-19T08:29:06.799Z,2.85
2023-02-19T08:32:14.587Z,2.75
2023-02-19T08:35:18.708Z,2.63
2023-02-19T08:38:25.020Z,2.58
2023-02-19T08:41:28.909Z,2.90
2023-02-19T08:44:34.789Z,2.72
2023-02-19T08:50:46.738Z,2.33
2023-02-19T08:53:50.690Z,2.95
2023-02-19T08:56:56.548Z,2.92
2023-02-19T09:03:07.922Z,2.40
2023-02-19T09:06:16.567Z,2.30
2023-02-19T09:09:22.419Z,2.55
2023-02-19T09:15:32.812Z,2.15
2023-02-19T09:18:38.857Z,2.85
2023-02-19T09:21:44.884Z,2.60
2023-02-19T09:24:48.723Z,2.53
2023-02-19T09:27:57.239Z,2.55
2023-02-19T09:31:06.881Z,2.33
2023-02-19T09:34:15.033Z,1.83
2023-02-19T09:37:18.923Z,2.50
2023-02-19T09:40:24.742Z,2.30
2023-02-19T09:46:40.005Z,2.17
2023-02-19T09:49:49.517Z,2.35
2023-02-19T09:52:58.292Z,2.28
2023-02-19T09:56:02.878Z,2.30
2023-02-19T09:59:14.852Z,1.83
2023-02-19T10:02:20.333Z,1.88
2023-02-19T10:05:28.645Z,1.98
2023-02-19T10:08:35.056Z,2.55
2023-02-19T10:11:41.290Z,2.03
2023-02-19T10:14:49.056Z,1.90
2023-02-19T10:17:55.337Z,2.28
2023-02-19T10:21:02.100Z,2.72
2023-02-19T10:24:09.709Z,2.65
2023-02-19T10:27:15.393Z,2.22
2023-02-19T10:30:23.452Z,2.03
2023-02-19T10:33:28.160Z,2.97
2023-02-19T10:36:39.902Z,2.50
2023-02-19T10:39:46.844Z,2.20
2023-02-19T10:42:55.782Z,2.20
2023-02-19T10:46:01.168Z,2.25
2023-02-19T10:49:19.521Z,2.30
2023-02-19T10:52:28.586Z,2.45
2023-02-19T10:55:38.229Z,1.98
2023-02-19T10:58:44.180Z,2.45
2023-02-19T11:01:56.839Z,2.35
2023-02-19T11:05:19.269Z,1.75
2023-02-19T11:11:34.380Z,2.17
2023-02-19T11:14:43.834Z,2.33
2023-02-19T11:17:55.706Z,2.53
2023-02-19T11:21:04.123Z,2.70
2023-02-19T11:24:26.152Z,2.03
2023-02-19T11:27:32.406Z,2.20
2023-02-19T11:30:39.463Z,2.05
2023-02-19T11:33:47.420Z,2.30
2023-02-19T11:37:10.563Z,2.10
2023-02-19T11:40:18.469Z,1.95
2023-02-19T11:43:40.708Z,2.22
2023-02-19T11:46:58.103Z,2.30
2023-02-19T11:50:08.400Z,2.10
2023-02-19T11:53:22.721Z,1.98
2023-02-19T11:56:35.132Z,1.67
2023-02-19T11:59:47.835Z,2.25
2023-02-19T12:03:25.928Z,1.98
2023-02-19T12:06:38.737Z,2.20
2023-02-19T12:09:53.273Z,2.22
2023-02-19T12:13:11.631Z,2.35
2023-02-19T12:16:23.305Z,1.67
2023-02-19T12:19:54.756Z,2.33
2023-02-19T12:23:16.320Z,2.10
2023-02-19T12:26:26.372Z,2.10
2023-02-19T12:29:50.295Z,1.98
2023-02-19T12:33:25.903Z,1.80
2023-02-19T12:36:37.955Z,1.83
2023-02-19T12:39:52.161Z,2.05
2023-02-19T12:43:04.989Z,2.22
2023-02-19T12:46:20.015Z,1.90
2023-02-19T12:49:29.912Z,2.40
2023-02-19T12:52:40.684Z,2.33
2023-02-19T12:55:47.027Z,1.90
2023-02-19T12:58:58.125Z,1.63
2023-02-19T13:02:11.943Z,2.05
2023-02-19T13:05:22.581Z,1.90
2023-02-19T13:08:33.986Z,2.20
2023-02-19T13:11:45.543Z,2.67
2023-02-19T13:14:53.178Z,2.50
2023-02-19T13:18:01.912Z,1.90
2023-02-19T13:21:07.681Z,1.98
2023-02-19T13:24:15.722Z,1.85
2023-02-19T13:31:04.919Z,2.38
2023-02-19T13:34:24.023Z,2.97
2023-02-19T13:37:34.479Z,4.63
2023-02-19T13:40:42.947Z,2.40
2023-02-19T13:43:56.658Z,2.60
2023-02-19T13:47:05.439Z,3.10
2023-02-19T13:50:21.616Z,2.83
2023-02-19T13:56:46.242Z,1.80
2023-02-19T14:03:29.492Z,2.97
2023-02-19T14:07:10.291Z,2.53
2023-02-19T14:11:01.700Z,2.35
2023-02-19T14:14:10.481Z,2.65
2023-02-19T14:17:39.571Z,2.25
2023-02-19T14:20:44.807Z,2.45
2023-02-19T14:23:56.695Z,2.42
2023-02-19T14:27:02.077Z,2.58
2023-02-19T14:30:12.126Z,2.05
2023-02-19T14:33:18.594Z,1.88
2023-02-19T14:36:35.486Z,1.45
2023-02-19T14:39:41.385Z,2.03
2023-02-19T14:42:47.514Z,1.42
2023-02-19T14:45:56.473Z,1.55
2023-02-19T14:49:06.958Z,1.50
2023-02-19T14:52:18.238Z,1.40
2023-02-19T14:55:31.931Z,1.08
2023-02-19T14:58:36.321Z,1.27
2023-02-19T15:01:42.441Z,2.10
2023-02-19T15:04:46.344Z,1.70
2023-02-19T15:07:54.716Z,1.88
2023-02-19T15:11:02.444Z,1.58
2023-02-19T15:14:09.666Z,1.52
2023-02-19T15:17:19.402Z,1.98
2023-02-19T15:20:29.508Z,1.30
2023-02-19T15:23:36.659Z,1.17
2023-02-19T15:26:50.147Z,1.60
2023-02-19T15:29:55.230Z,1.60
2023-02-19T15:33:02.351Z,1.67
2023-02-19T15:36:08.909Z,2.80
2023-02-19T15:39:22.261Z,2.03
2023-02-19T15:42:31.440Z,1.80
2023-02-19T15:45:42.797Z,1.27
2023-02-19T15:48:52.331Z,1.40
2023-02-19T15:52:02.070Z,1.70
2023-02-19T15:55:14.893Z,1.70
2023-02-19T15:58:28.057Z,1.70
2023-02-19T16:01:34.139Z,2.35
2023-02-19T16:04:40.702Z,2.10
2023-02-19T16:07:45.043Z,1.90
2023-02-19T16:10:58.858Z,1.80
2023-02-19T16:14:24.313Z,1.60
2023-02-19T16:17:30.226Z,2.92
2023-02-19T16:23:44.470Z,1.33
2023-02-19T16:26:48.395Z,1.30
2023-02-19T16:29:57.048Z,1.60
2023-02-19T16:33:31.365Z,2.53
2023-02-19T16:36:40.929Z,1.73
2023-02-19T16:39:44.922Z,1.77
2023-02-19T16:43:27.128Z,1.40
2023-02-19T16:46:32.961Z,1.60
2023-02-19T16:49:41.832Z,1.60
2023-02-19T16:52:52.975Z,1.70
2023-02-19T16:55:59.218Z,3.33
2023-02-19T16:59:03.203Z,2.47
2023-02-19T17:02:16.774Z,2.35
2023-02-19T17:05:22.474Z,2.22
2023-02-19T17:08:33.469Z,2.30
2023-02-19T17:11:37.911Z,2.00
2023-02-19T17:14:43.767Z,1.73
2023-02-19T17:17:49.700Z,2.03
2023-02-19T17:21:00.878Z,2.15
2023-02-19T17:24:04.981Z,2.00
2023-02-19T17:27:12.490Z,2.38
2023-02-19T17:30:21.253Z,2.22
2023-02-19T17:33:29.078Z,2.00
2023-02-19T17:36:33.920Z,2.80
2023-02-19T17:39:39.781Z,2.38
2023-02-19T17:42:43.801Z,1.98
2023-02-19T17:45:49.656Z,1.55
2023-02-19T17:52:01.565Z,2.55
2023-02-19T17:58:11.253Z,1.40
2023-02-19T18:04:23.528Z,1.65
2023-02-19T18:07:27.419Z,1.50
2023-02-19T18:10:33.276Z,1.63
2023-02-19T18:13:37.070Z,1.73
2023-02-19T18:16:49.848Z,1.85
2023-02-19T18:19:56.180Z,2.22
2023-02-19T18:23:02.151Z,3.20
2023-02-19T18:29:14.261Z,2.67
2023-02-19T18:32:18.076Z,1.80
2023-02-19T18:35:26.017Z,3.17
2023-02-19T18:38:30.141Z,2.20
2023-02-19T18:41:35.976Z,1.40
2023-02-19T18:47:48.547Z,1.42
2023-02-19T18:50:54.318Z,1.60
2023-02-19T18:54:01.132Z,1.90
2023-02-19T18:57:05.289Z,1.60
2023-02-19T19:00:13.189Z,1.55
2023-02-19T19:03:17.014Z,1.65
2023-02-19T19:06:24.782Z,2.15
2023-02-19T19:09:28.647Z,1.45
2023-02-19T19:12:34.408Z,1.48
2023-02-19T19:15:40.443Z,1.67
2023-02-19T19:18:48.543Z,1.58
2023-02-19T19:21:55.465Z,2.13
2023-02-19T19:25:01.291Z,1.38
2023-02-19T19:28:05.358Z,1.08
2023-02-19T19:31:11.850Z,1.60
2023-02-19T19:34:16.303Z,1.30
2023-02-19T19:37:24.474Z,1.60
2023-02-19T19:40:29.108Z,1.70
2023-02-19T19:43:35.286Z,1.45
2023-02-19T19:46:45.760Z,1.63
2023-02-19T19:49:51.648Z,1.45
2023-02-19T19:56:03.770Z,1.38
2023-02-19T19:59:07.657Z,1.90
2023-02-19T20:02:13.816Z,1.77
2023-02-19T20:05:18.192Z,1.52
2023-02-19T20:08:26.318Z,1.85
2023-02-19T20:11:30.139Z,1.52
2023-02-19T20:14:35.985Z,1.17
2023-02-19T20:20:45.513Z,1.50
2023-02-19T20:26:59.574Z,2.03
2023-02-19T20:30:03.383Z,1.45
2023-02-19T20:33:09.224Z,1.88
2023-02-19T20:36:13.221Z,1.70
2023-02-19T20:39:22.587Z,1.85
2023-02-19T20:42:26.481Z,1.63
2023-02-19T20:45:32.290Z,1.73
2023-02-19T20:48:36.076Z,1.73
2023-02-19T20:51:46.078Z,2.83
2023-02-19T20:54:55.670Z,3.47
2023-02-19T20:58:01.459Z,3.00
2023-02-19T21:01:05.522Z,2.50
2023-02-19T21:04:11.530Z,2.50
2023-02-19T21:07:15.814Z,1.80
2023-02-19T21:10:23.678Z,2.08
2023-02-19T21:13:30.157Z,2.17
2023-02-19T21:16:36.146Z,2.30
2023-02-19T21:22:45.639Z,2.10
2023-02-19T21:29:00.349Z,2.67
2023-02-19T21:32:05.313Z,2.78
2023-02-19T21:35:11.208Z,3.53
2023-02-19T21:38:15.026Z,3.88
2023-02-19T21:41:22.848Z,3.72
2023-02-19T21:44:26.807Z,3.88
2023-02-19T21:47:32.607Z,4.30
2023-02-19T21:53:42.055Z,3.30
2023-02-19T21:59:53.855Z,3.20
2023-02-19T22:06:03.884Z,3.28
2023-02-19T22:09:08.565Z,3.55
2023-02-19T22:12:16.355Z,2.55
2023-02-19T22:15:20.180Z,2.83
2023-02-19T22:18:26.026Z,2.80
2023-02-19T22:24:37.649Z,2.60
2023-02-19T22:30:49.039Z,2.63
2023-02-19T22:33:53.558Z,2.72
2023-02-19T22:36:59.441Z,3.05
2023-02-19T22:43:10.885Z,3.22
2023-02-19T22:46:16.812Z,3.53
2023-02-19T22:49:24.187Z,4.15
2023-02-19T22:52:28.083Z,3.65
2023-02-19T22:55:33.940Z,3.63
2023-02-19T23:01:45.295Z,4.90
2023-02-19T23:04:49.129Z,4.30
2023-02-19T23:07:55.011Z,5.35
2023-02-19T23:14:06.720Z,4.68
2023-02-19T23:17:11.011Z,5.25
2023-02-19T23:20:16.980Z,5.18
2023-02-19T23:26:27.217Z,5.70
2023-02-19T23:29:32.987Z,5.55
2023-02-19T23:32:38.884Z,5.35
2023-02-19T23:38:48.737Z,5.82
2023-02-19T23:41:55.192Z,5.47
2023-02-19T23:45:03.041Z,5.70
2023-02-19T23:48:06.957Z,5.05
2023-02-19T23:51:13.539Z,5.28
2023-02-19T23:54:17.627Z,5.97
2023-02-19T23:57:23.406Z,5.78
